Time;durP1;ratioP1;P1;durP2;ratioP2;P2;SDS_P1;SDS_P2;PMS_P1;PMS_P2;Temp;Humidity;BMP_temperature;BMP_pressure;BME280_temperature;BME280_humidity;BME280_pressure;Samples;Min_cycle;Max_cycle;Signal;HPM_P1;HPM_P2
2022/01/14 00:01:29;;;;;;;;;;;;;;;7.92;69.73;103352.69;7357957;19;19929;-65
2022/01/14 00:03:54;;;;;;;;;;;;;;;7.90;69.52;103354.31;7359230;19;19926;-64
2022/01/14 00:06:20;;;;;;;;;;;;;;;7.91;69.62;103345.72;7354434;19;19926;-63
2022/01/14 00:08:45;;;;;;;;;;;;;;;7.90;69.96;103349.13;7357149;19;19907;-64
2022/01/14 00:11:15;;;;;;;;;;;;;;;7.90;70.08;103349.13;7350179;19;19994;-64
2022/01/14 00:14:06;;;;;;;;;;;;;;;7.90;69.76;103351.72;7348892;19;20375;-64
2022/01/14 00:16:32;;;;;;;;;;;;;;;7.89;69.61;103352.56;7357270;19;19935;-63
2022/01/14 00:18:58;;;;;;;;;;;;;;;7.89;69.66;103346.47;7356244;19;19982;-64
2022/01/14 00:21:23;;;;;;;;;;;;;;;7.88;69.57;103345.59;7348456;19;19940;-64
2022/01/14 00:23:52;;;;;;;;;;;;;;;7.88;69.74;103356.00;7352483;19;19938;-64
2022/01/14 00:31:51;;;;;;;;;;;;;;;7.87;69.90;103343.84;7353294;19;19995;-64
2022/01/14 00:34:17;;;;;;;;;;;;;;;7.87;69.90;103343.84;7348564;19;19922;-65
2022/01/14 00:36:42;;;;;;;;;;;;;;;7.86;69.63;103352.50;7358646;19;19914;-63
2022/01/14 00:39:09;;;;;;;;;;;;;;;7.87;69.58;103353.38;7351388;19;19944;-64
2022/01/14 00:41:35;;;;;;;;;;;;;;;7.87;69.98;103353.38;7355498;19;19919;-65
2022/01/14 00:44:03;;;;;;;;;;;;;;;7.86;70.02;103347.28;7358310;19;19926;-63
2022/01/14 00:46:28;;;;;;;;;;;;;;;7.87;70.13;103348.16;7358730;19;20658;-65
2022/01/14 00:48:54;;;;;;;;;;;;;;;7.86;69.86;103355.09;7357210;19;19926;-65
2022/01/14 00:51:19;;;;;;;;;;;;;;;7.85;69.97;103345.50;7356947;19;20008;-64
2022/01/14 00:53:45;;;;;;;;;;;;;;;7.86;69.57;103349.00;7357533;19;19922;-64
2022/01/14 00:56:25;;;;;;;;;;;;;;;7.85;69.57;103355.91;7356375;19;21757;-65
2022/01/14 01:01:35;;;;;;;;;;;;;;;7.86;69.85;103344.69;7349965;19;19931;-65
2022/01/14 01:04:01;;;;;;;;;;;;;;;7.86;69.94;103349.88;7358081;19;19927;-64
2022/01/14 01:06:26;;;;;;;;;;;;;;;7.87;69.93;103343.84;7358004;19;19915;-65
2022/01/14 01:08:52;;;;;;;;;;;;;;;7.87;69.97;103342.97;7352200;19;19935;-64
2022/01/14 01:11:24;;;;;;;;;;;;;;;7.87;69.72;103341.25;7360257;19;19923;-64
2022/01/14 01:14:00;;;;;;;;;;;;;;;7.87;69.96;103328.25;7358290;19;19923;-64
2022/01/14 01:16:25;;;;;;;;;;;;;;;7.87;69.77;103328.25;7359973;19;19915;-65
2022/01/14 01:18:50;;;;;;;;;;;;;;;7.87;69.90;103323.03;7357535;19;19918;-65
2022/01/14 01:21:16;;;;;;;;;;;;;;;7.88;69.57;103330.00;7363058;19;19940;-65
2022/01/14 01:23:41;;;;;;;;;;;;;;;7.88;69.53;103314.38;7365108;19;20306;-65
2022/01/14 01:26:31;;;;;;;;;;;;;;;7.89;69.89;103315.25;7362719;19;19919;-63
2022/01/14 01:31:38;;;;;;;;;;;;;;;7.88;69.61;103314.38;7362915;19;20442;-65
2022/01/14 01:34:09;;;;;;;;;;;;;;;7.89;69.76;103312.66;7360840;19;20519;-63
2022/01/14 01:36:35;;;;;;;;;;;;;;;7.89;69.85;103308.34;7363896;19;19946;-64
2022/01/14 01:39:02;;;;;;;;;;;;;;;7.90;69.76;103302.28;7363234;19;19918;-64
2022/01/14 01:41:28;;;;;;;;;;;;;;;7.91;69.94;103293.69;7361677;19;19915;-65
2022/01/14 01:43:54;;;;;;;;;;;;;;;7.91;69.56;103291.06;7363665;19;20001;-64
2022/01/14 01:46:20;;;;;;;;;;;;;;;7.92;69.74;103282.44;7360983;19;19919;-64
2022/01/14 01:48:46;;;;;;;;;;;;;;;7.92;69.83;103278.94;7362996;19;19947;-65
2022/01/14 01:51:12;;;;;;;;;;;;;;;7.92;69.97;103279.81;7356909;19;19918;-64
2022/01/14 01:53:38;;;;;;;;;;;;;;;7.93;69.89;103281.59;7364936;19;20318;-65
2022/01/14 01:56:03;;;;;;;;;;;;;;;7.93;69.95;103275.50;7360726;19;20366;-65
2022/01/14 01:58:28;;;;;;;;;;;;;;;7.93;69.58;103265.97;7361011;19;19931;-63
2022/01/14 02:00:54;;;;;;;;;;;;;;;7.95;69.82;103273.81;7359434;19;20014;-65
2022/01/14 02:03:19;;;;;;;;;;;;;;;7.94;69.84;103267.72;7361234;19;19926;-65
2022/01/14 02:05:45;;;;;;;;;;;;;;;7.95;69.74;103259.09;7363449;19;19941;-64
2022/01/14 02:08:10;;;;;;;;;;;;;;;7.95;69.57;103251.28;7362242;19;20290;-64
2022/01/14 02:10:37;;;;;;;;;;;;;;;7.94;69.99;103249.53;7356857;19;19927;-64
2022/01/14 02:13:03;;;;;;;;;;;;;;;7.95;69.85;103248.66;7362753;19;20247;-64
2022/01/14 02:23:47;;;;;;;;;;;;;;;7.97;69.83;103260.03;7357205;19;19918;-63
2022/01/14 02:26:13;;;;;;;;;;;;;;;7.97;70.01;103261.75;7361344;19;19918;-65
2022/01/14 02:28:40;;;;;;;;;;;;;;;7.97;70.03;103267.84;7362485;19;19935;-63
2022/01/14 02:31:06;;;;;;;;;;;;;;;7.96;69.74;103260.00;7359936;19;19914;-64
2022/01/14 02:33:31;;;;;;;;;;;;;;;7.96;70.11;103270.41;7359629;19;19929;-65
2022/01/14 02:35:58;;;;;;;;;;;;;;;7.95;69.75;103264.28;7360876;19;19927;-65
2022/01/14 02:38:24;;;;;;;;;;;;;;;7.95;69.98;103255.59;7363299;19;20814;-65
2022/01/14 02:40:49;;;;;;;;;;;;;;;7.94;69.89;103256.44;7358656;19;19923;-64
2022/01/14 02:43:16;;;;;;;;;;;;;;;7.96;69.59;103254.78;7359741;19;19935;-64
2022/01/14 02:45:43;;;;;;;;;;;;;;;7.95;69.62;103245.19;7359163;19;19935;-64
2022/01/14 02:48:08;;;;;;;;;;;;;;;7.95;69.92;103246.06;7361914;19;19915;-64
2022/01/14 02:50:40;;;;;;;;;;;;;;;7.94;69.84;103241.72;7360906;19;19922;-64
2022/01/14 02:53:25;;;;;;;;;;;;;;;7.94;69.63;103241.72;7363444;19;19935;-64
2022/01/14 02:55:57;;;;;;;;;;;;;;;7.94;69.83;103236.50;7364314;19;20263;-64
2022/01/14 02:58:23;;;;;;;;;;;;;;;7.95;70.02;103238.25;7355948;19;19926;-64
2022/01/14 03:00:50;;;;;;;;;;;;;;;7.95;69.66;103232.19;7364357;19;19933;-64
2022/01/14 03:03:16;;;;;;;;;;;;;;;7.96;69.95;103234.84;7364339;19;19934;-64
2022/01/14 03:05:41;;;;;;;;;;;;;;;7.95;69.78;103232.19;7361667;19;19915;-64
2022/01/14 03:08:06;;;;;;;;;;;;;;;7.93;69.79;103229.53;7363046;19;19927;-62
2022/01/14 03:10:32;;;;;;;;;;;;;;;7.94;69.72;103226.09;7365621;19;19922;-65
2022/01/14 03:12:57;;;;;;;;;;;;;;;7.93;69.62;103224.34;7363992;19;19918;-64
2022/01/14 03:15:23;;;;;;;;;;;;;;;7.91;69.83;103223.44;7364078;19;20413;-65
2022/01/14 03:17:48;;;;;;;;;;;;;;;7.91;69.93;103215.63;7367104;19;19971;-65
2022/01/14 03:20:41;;;;;;;;;;;;;;;7.90;69.96;103216.44;7362139;19;20360;-63
2022/01/14 03:23:05;;;;;;;;;;;;;;;7.90;69.99;103213.84;7359276;19;19915;-65
2022/01/14 03:26:03;;;;;;;;;;;;;;;7.91;69.68;103214.75;7362864;19;19978;-65
2022/01/14 03:28:23;;;;;;;;;;;;;;;7.90;69.85;103213.84;7264382;19;2004614;-64
2022/01/14 03:30:49;;;;;;;;;;;;;;;7.89;70.12;103206.88;7363860;19;19926;-65
2022/01/14 03:33:14;;;;;;;;;;;;;;;7.89;69.96;103198.19;7353352;19;19915;-65
2022/01/14 03:35:40;;;;;;;;;;;;;;;7.89;69.87;103196.47;7364918;19;19974;-64
2022/01/14 03:38:05;;;;;;;;;;;;;;;7.88;69.56;103186.91;7361610;19;19919;-64
2022/01/14 03:40:31;;;;;;;;;;;;;;;7.90;69.91;103187.81;7362791;19;19936;-65
2022/01/14 03:42:56;;;;;;;;;;;;;;;7.90;70.07;103182.63;7355471;19;19938;-65
2022/01/14 03:45:22;;;;;;;;;;;;;;;7.91;69.73;103178.31;7364052;19;19915;-65
2022/01/14 03:47:47;;;;;;;;;;;;;;;7.92;70.12;103173.16;7360591;19;19935;-63
2022/01/14 03:50:12;;;;;;;;;;;;;;;7.94;70.11;103167.97;7362231;19;19915;-64
2022/01/14 03:52:37;;;;;;;;;;;;;;;7.94;70.12;103174.06;7359705;19;19923;-65
2022/01/14 03:55:03;;;;;;;;;;;;;;;7.95;69.62;103168.00;7363875;19;19926;-63
2022/01/14 03:57:28;;;;;;;;;;;;;;;7.96;69.67;103174.13;7361995;19;19914;-64
2022/01/14 03:59:54;;;;;;;;;;;;;;;7.95;69.96;103178.41;7362556;19;19923;-64
2022/01/14 04:02:19;;;;;;;;;;;;;;;7.96;70.05;103188.03;7362359;19;19929;-63
2022/01/14 04:04:44;;;;;;;;;;;;;;;7.96;70.01;103188.03;7363346;19;20011;-64
2022/01/14 04:07:09;;;;;;;;;;;;;;;7.96;69.92;103176.72;7356079;19;19951;-64
2022/01/14 04:09:37;;;;;;;;;;;;;;;7.97;69.74;103179.38;7361983;19;19919;-64
2022/01/14 04:12:07;;;;;;;;;;;;;;;7.96;69.99;103172.41;7359774;19;19930;-65
2022/01/14 04:17:00;;;;;;;;;;;;;;;7.96;69.73;103172.41;7357228;19;19963;-65
2022/01/14 04:19:27;;;;;;;;;;;;;;;7.95;69.92;103162.81;7359339;19;19930;-64
2022/01/14 04:21:52;;;;;;;;;;;;;;;7.95;69.93;103165.41;7362113;19;19922;-63
2022/01/14 04:24:17;;;;;;;;;;;;;;;7.96;69.85;103161.13;7356890;19;19922;-64
2022/01/14 04:26:43;;;;;;;;;;;;;;;7.95;69.72;103155.00;7364364;19;19956;-64
2022/01/14 04:29:08;;;;;;;;;;;;;;;7.95;70.31;103149.81;7362459;19;19921;-65
2022/01/14 04:31:33;;;;;;;;;;;;;;;7.94;70.23;103153.25;7361794;19;19946;-63
2022/01/14 04:33:58;;;;;;;;;;;;;;;7.92;69.97;103144.53;7363419;19;19938;-64
2022/01/14 04:36:24;;;;;;;;;;;;;;;7.90;69.65;103141.00;7361069;19;19915;-65
2022/01/14 04:38:49;;;;;;;;;;;;;;;7.90;69.60;103154.00;7363500;19;20277;-65
2022/01/14 04:41:14;;;;;;;;;;;;;;;7.90;69.73;103156.59;7355406;19;19925;-64
2022/01/14 04:43:39;;;;;;;;;;;;;;;7.90;69.67;103156.59;7363382;19;19923;-63
2022/01/14 04:48:32;;;;;;;;;;;;;;;7.92;69.64;103148.84;7367777;19;19922;-64
2022/01/14 04:50:58;;;;;;;;;;;;;;;7.93;69.79;103145.41;7368721;19;19922;-63
2022/01/14 04:53:23;;;;;;;;;;;;;;;7.93;69.53;103146.28;7370783;19;19957;-63
2022/01/14 04:55:53;;;;;;;;;;;;;;;7.93;69.65;103143.69;7364720;19;20267;-64
2022/01/14 04:58:18;;;;;;;;;;;;;;;7.94;69.63;103141.97;7370006;19;19914;-65
2022/01/14 05:00:44;;;;;;;;;;;;;;;7.93;69.98;103129.81;7367428;19;19925;-65
2022/01/14 05:03:09;;;;;;;;;;;;;;;7.94;69.99;103135.03;7368494;19;19917;-65
2022/01/14 05:05:38;;;;;;;;;;;;;;;7.94;69.88;103134.16;7367734;19;20617;-63
2022/01/14 05:08:09;;;;;;;;;;;;;;;7.93;70.05;103116.78;7366482;19;19919;-63
2022/01/14 05:10:46;;;;;;;;;;;;;;;7.92;69.61;103118.53;7371022;19;19919;-63
2022/01/14 05:13:12;;;;;;;;;;;;;;;7.92;69.90;103115.03;7363975;19;20628;-65
2022/01/14 05:15:37;;;;;;;;;;;;;;;7.90;69.94;103104.56;7365253;19;19932;-64
2022/01/14 05:18:02;;;;;;;;;;;;;;;7.89;69.78;103100.22;7368618;19;19939;-65
2022/01/14 05:20:27;;;;;;;;;;;;;;;7.89;69.47;103102.81;7369967;19;20236;-64
2022/01/14 05:22:53;;;;;;;;;;;;;;;7.89;69.58;103097.63;7368373;19;20435;-64
2022/01/14 05:25:18;;;;;;;;;;;;;;;7.90;69.90;103099.38;7369400;19;19907;-66
2022/01/14 05:27:43;;;;;;;;;;;;;;;7.90;69.61;103098.50;7366349;19;20169;-64
2022/01/14 05:30:10;;;;;;;;;;;;;;;7.90;69.92;103081.16;7368431;19;19974;-65
2022/01/14 05:32:36;;;;;;;;;;;;;;;7.90;69.56;103088.97;7369488;19;21054;-64
2022/01/14 05:35:02;;;;;;;;;;;;;;;7.91;69.79;103080.34;7370086;19;19915;-64
2022/01/14 05:37:27;;;;;;;;;;;;;;;7.91;69.96;103088.16;7366075;19;19962;-64
2022/01/14 05:39:53;;;;;;;;;;;;;;;7.90;69.69;103091.56;7368925;19;19919;-65
2022/01/14 05:42:18;;;;;;;;;;;;;;;7.89;69.68;103082.00;7363986;19;19919;-64
2022/01/14 05:44:43;;;;;;;;;;;;;;;7.88;69.94;103080.25;7369222;19;19922;-64
2022/01/14 05:47:09;;;;;;;;;;;;;;;7.87;69.85;103078.50;7361996;19;19950;-65
2022/01/14 05:49:34;;;;;;;;;;;;;;;7.87;69.50;103082.81;7367332;19;19954;-63
2022/01/14 05:52:00;;;;;;;;;;;;;;;7.86;69.56;103086.28;7368695;19;20002;-65
2022/01/14 05:54:25;;;;;;;;;;;;;;;7.86;69.90;103079.34;7366198;19;19941;-63
2022/01/14 05:56:51;;;;;;;;;;;;;;;7.86;69.88;103078.47;7365850;19;19929;-65
2022/01/14 05:59:16;;;;;;;;;;;;;;;7.85;69.94;103074.94;7368445;19;20240;-65
2022/01/14 06:01:44;;;;;;;;;;;;;;;7.86;69.60;103071.53;7367074;19;19919;-64
2022/01/14 06:04:10;;;;;;;;;;;;;;;7.86;70.09;103073.25;7369937;19;19919;-65
2022/01/14 06:06:35;;;;;;;;;;;;;;;7.85;69.65;103072.34;7363578;19;19984;-63
2022/01/14 06:09:01;;;;;;;;;;;;;;;7.85;69.70;103074.94;7367707;19;20001;-64
2022/01/14 06:11:27;;;;;;;;;;;;;;;7.86;69.81;103086.28;7365747;19;19922;-64
2022/01/14 06:13:52;;;;;;;;;;;;;;;7.86;69.78;103086.28;7368764;19;20683;-64
2022/01/14 06:16:17;;;;;;;;;;;;;;;7.84;69.88;103078.41;7360459;19;20018;-65
2022/01/14 06:18:43;;;;;;;;;;;;;;;7.83;70.02;103087.06;7363398;19;19914;-65
2022/01/14 06:21:08;;;;;;;;;;;;;;;7.83;69.76;103076.66;7365717;19;19915;-65
2022/01/14 06:23:34;;;;;;;;;;;;;;;7.82;69.83;103080.09;7368220;19;19923;-63
2022/01/14 06:25:59;;;;;;;;;;;;;;;7.81;70.01;103078.34;7360453;19;20006;-63
2022/01/14 06:28:25;;;;;;;;;;;;;;;7.79;69.63;103082.59;7370235;19;19934;-64
2022/01/14 06:30:50;;;;;;;;;;;;;;;7.78;69.48;103080.84;7363013;19;19986;-65
2022/01/14 06:33:15;;;;;;;;;;;;;;;7.77;69.66;103084.28;7365462;19;19932;-64
2022/01/14 06:35:41;;;;;;;;;;;;;;;7.77;69.66;103086.88;7366370;19;19950;-63
2022/01/14 06:38:06;;;;;;;;;;;;;;;7.75;69.99;103093.75;7365460;19;19951;-64
2022/01/14 06:40:32;;;;;;;;;;;;;;;7.76;70.05;103092.94;7364036;19;19931;-64
2022/01/14 06:42:57;;;;;;;;;;;;;;;7.76;69.81;103092.94;7366540;19;20355;-64
2022/01/14 06:45:23;;;;;;;;;;;;;;;7.75;69.80;103088.56;7365425;19;20276;-64
2022/01/14 06:47:49;;;;;;;;;;;;;;;7.76;69.59;103085.13;7367688;19;19982;-65
2022/01/14 06:50:15;;;;;;;;;;;;;;;7.75;70.02;103089.44;7366377;19;19923;-65
2022/01/14 06:52:40;;;;;;;;;;;;;;;7.76;70.04;103088.63;7367555;19;19915;-64
2022/01/14 06:55:06;;;;;;;;;;;;;;;7.75;69.99;103083.34;7361898;19;19919;-65
2022/01/14 06:57:31;;;;;;;;;;;;;;;7.76;70.01;103090.34;7365816;19;19923;-65
2022/01/14 06:59:57;;;;;;;;;;;;;;;7.75;69.68;103084.22;7365131;19;19923;-64
2022/01/14 07:02:22;;;;;;;;;;;;;;;7.75;69.83;103085.94;7364794;19;19918;-65
2022/01/14 07:04:48;;;;;;;;;;;;;;;7.75;69.90;103093.75;7365667;19;19921;-64
2022/01/14 07:07:13;;;;;;;;;;;;;;;7.74;69.95;103092.88;7362946;19;19926;-65
2022/01/14 07:09:55;;;;;;;;;;;;;;;7.73;69.78;103090.25;7360320;19;20014;-64
2022/01/14 07:12:21;;;;;;;;;;;;;;;7.73;69.94;103096.31;7366901;19;19982;-65
2022/01/14 07:14:46;;;;;;;;;;;;;;;7.74;70.12;103097.19;7364409;19;19911;-65
2022/01/14 07:17:12;;;;;;;;;;;;;;;7.73;70.11;103085.91;7364158;19;19935;-64
2022/01/14 07:19:37;;;;;;;;;;;;;;;7.74;70.30;103089.41;7366284;19;19922;-65
2022/01/14 07:22:03;;;;;;;;;;;;;;;7.74;70.07;103086.78;7365904;19;19930;-65
2022/01/14 07:24:28;;;;;;;;;;;;;;;7.74;70.12;103076.38;7365313;19;19934;-64
2022/01/14 07:26:54;;;;;;;;;;;;;;;7.73;70.20;103074.63;7362765;19;19926;-64
2022/01/14 07:29:19;;;;;;;;;;;;;;;7.72;70.31;103072.88;7362443;19;19919;-65
2022/01/14 07:31:45;;;;;;;;;;;;;;;7.71;70.14;103072.00;7359767;19;19945;-63
2022/01/14 07:34:10;;;;;;;;;;;;;;;7.72;70.21;103072.88;7365441;19;19923;-65
2022/01/14 07:36:35;;;;;;;;;;;;;;;7.70;69.80;103069.34;7363738;19;19922;-65
2022/01/14 07:39:01;;;;;;;;;;;;;;;7.69;69.76;103067.59;7361708;19;19968;-64
2022/01/14 07:41:26;;;;;;;;;;;;;;;7.68;69.77;103065.81;7361338;19;19922;-65
2022/01/14 07:43:51;;;;;;;;;;;;;;;7.67;70.12;103071.88;7361055;19;19947;-65
2022/01/14 07:46:17;;;;;;;;;;;;;;;7.66;70.16;103072.72;7361876;19;19950;-65
2022/01/14 07:48:42;;;;;;;;;;;;;;;7.62;69.96;103086.47;7364417;19;19945;-65
2022/01/14 07:51:09;;;;;;;;;;;;;;;7.59;69.91;103094.19;7362795;19;20821;-64
2022/01/14 07:53:35;;;;;;;;;;;;;;;7.54;70.09;103092.31;7364363;19;19938;-65
2022/01/14 07:56:00;;;;;;;;;;;;;;;7.51;69.83;103094.84;7353475;19;19929;-64
2022/01/14 07:58:26;;;;;;;;;;;;;;;7.50;69.87;103093.09;7362691;19;19932;-64
2022/01/14 08:00:51;;;;;;;;;;;;;;;7.50;69.97;103092.19;7360512;19;20345;-65
2022/01/14 08:03:16;;;;;;;;;;;;;;;7.49;69.92;103086.09;7355694;19;19974;-64
2022/01/14 08:05:42;;;;;;;;;;;;;;;7.49;70.27;103090.44;7364202;19;19982;-65
2022/01/14 08:08:07;;;;;;;;;;;;;;;7.49;70.34;103096.50;7346810;19;19926;-65
2022/01/14 08:10:34;;;;;;;;;;;;;;;7.48;70.44;103099.06;7366038;19;20559;-64
2022/01/14 08:12:59;;;;;;;;;;;;;;;7.48;69.98;103094.75;7357348;19;19923;-65
2022/01/14 08:15:24;;;;;;;;;;;;;;;7.48;69.93;103110.34;7361242;19;19915;-63
2022/01/14 08:17:49;;;;;;;;;;;;;;;7.49;70.16;103106.91;7358559;19;19941;-65
2022/01/14 08:20:15;;;;;;;;;;;;;;;7.50;70.39;103107.78;7363891;19;19982;-65
2022/01/14 08:22:40;;;;;;;;;;;;;;;7.49;70.15;103106.91;7361716;19;20455;-65
2022/01/14 08:25:06;;;;;;;;;;;;;;;7.50;70.10;103119.09;7369384;19;19927;-65
2022/01/14 08:27:31;;;;;;;;;;;;;;;7.49;70.37;103112.09;7361532;19;20383;-64
2022/01/14 08:29:56;;;;;;;;;;;;;;;7.49;70.35;103106.03;7365283;19;19928;-65
2022/01/14 08:32:22;;;;;;;;;;;;;;;7.48;70.13;103109.47;7371741;19;20271;-64
2022/01/14 08:34:48;;;;;;;;;;;;;;;7.47;70.58;103113.78;7364988;19;19935;-64
2022/01/14 08:37:13;;;;;;;;;;;;;;;7.47;70.25;103119.00;7369195;19;19910;-63
2022/01/14 08:39:39;;;;;;;;;;;;;;;7.46;70.27;103122.44;7368952;19;19918;-65
2022/01/14 08:42:06;;;;;;;;;;;;;;;7.45;70.24;103120.69;7370676;19;19994;-63
2022/01/14 08:44:32;;;;;;;;;;;;;;;7.45;70.13;103115.47;7370739;19;19914;-64
2022/01/14 08:46:57;;;;;;;;;;;;;;;7.44;70.19;103118.00;7370399;19;19928;-65
2022/01/14 08:49:22;;;;;;;;;;;;;;;7.43;70.19;103122.34;7365936;19;19919;-65
2022/01/14 08:51:49;;;;;;;;;;;;;;;7.43;70.45;103117.13;7367809;19;19930;-65
2022/01/14 08:54:15;;;;;;;;;;;;;;;7.42;70.28;103110.19;7362254;19;20320;-64
2022/01/14 08:56:40;;;;;;;;;;;;;;;7.43;70.45;103117.13;7366263;19;19918;-64
2022/01/14 08:59:06;;;;;;;;;;;;;;;7.41;70.34;103111.03;7362596;19;19935;-65
2022/01/14 09:01:31;;;;;;;;;;;;;;;7.41;70.03;103116.22;7369600;19;20276;-65
2022/01/14 09:03:57;;;;;;;;;;;;;;;7.42;70.39;103104.09;7361824;19;19919;-65
2022/01/14 09:06:22;;;;;;;;;;;;;;;7.42;70.52;103110.19;7364942;19;19922;-64
2022/01/14 09:08:48;;;;;;;;;;;;;;;7.43;70.31;103117.13;7367441;19;19930;-64
2022/01/14 09:11:13;;;;;;;;;;;;;;;7.45;70.20;103114.56;7367207;19;19915;-65
2022/01/14 09:13:38;;;;;;;;;;;;;;;7.46;70.53;103109.44;7371417;19;20714;-63
2022/01/14 09:16:04;;;;;;;;;;;;;;;7.47;70.18;103106.00;7367336;19;19914;-63
2022/01/14 09:18:29;;;;;;;;;;;;;;;7.49;70.49;103106.03;7371139;19;19937;-65
2022/01/14 09:20:57;;;;;;;;;;;;;;;7.49;70.06;103096.50;7365691;19;19925;-63
2022/01/14 09:23:25;;;;;;;;;;;;;;;7.51;70.38;103113.06;7368403;19;20516;-63
2022/01/14 09:25:51;;;;;;;;;;;;;;;7.52;70.51;103101.81;7365642;19;19925;-65
2022/01/14 09:28:16;;;;;;;;;;;;;;;7.53;70.39;103103.56;7358931;19;19923;-63
2022/01/14 09:30:41;;;;;;;;;;;;;;;7.56;70.36;103100.19;7367863;19;19930;-64
2022/01/14 09:33:06;;;;;;;;;;;;;;;7.58;70.49;103105.41;7367768;19;19934;-65
2022/01/14 09:35:32;;;;;;;;;;;;;;;7.60;70.38;103108.94;7368833;19;19915;-65
2022/01/14 09:37:57;;;;;;;;;;;;;;;7.61;70.56;103106.41;7369289;19;19935;-64
2022/01/14 09:40:23;;;;;;;;;;;;;;;7.63;70.12;103101.22;7367952;19;19914;-63
2022/01/14 09:42:49;;;;;;;;;;;;;;;7.65;70.58;103107.34;7367035;19;19927;-64
2022/01/14 09:45:15;;;;;;;;;;;;;;;7.66;70.22;103107.41;7367721;19;19926;-64
2022/01/14 09:47:42;;;;;;;;;;;;;;;7.67;70.45;103097.88;7367519;19;19985;-64
2022/01/14 09:50:07;;;;;;;;;;;;;;;7.70;70.54;103100.53;7368050;19;19930;-64
2022/01/14 09:52:33;;;;;;;;;;;;;;;7.72;70.21;103104.97;7364043;19;20025;-64
2022/01/14 09:54:58;;;;;;;;;;;;;;;7.74;70.14;103102.41;7366332;19;19919;-65
2022/01/14 09:57:24;;;;;;;;;;;;;;;7.78;70.32;103093.84;7359240;19;19929;-64
2022/01/14 09:59:49;;;;;;;;;;;;;;;7.82;70.21;103095.69;7365663;19;20378;-64
2022/01/14 10:02:28;;;;;;;;;;;;;;;7.84;70.19;103094.00;7368109;19;19954;-65
2022/01/14 10:04:53;;;;;;;;;;;;;;;7.88;70.45;103082.84;7359085;19;19922;-65
2022/01/14 10:07:19;;;;;;;;;;;;;;;7.91;70.34;103088.16;7366565;19;20011;-63
2022/01/14 10:09:49;;;;;;;;;;;;;;;7.95;70.29;103082.16;7365080;19;19978;-65
2022/01/14 10:12:16;;;;;;;;;;;;;;;7.98;70.47;103074.44;7368869;19;19951;-65
2022/01/14 10:14:52;;;;;;;;;;;;;;;8.02;70.45;103073.69;7363577;19;19915;-64
2022/01/14 10:17:18;;;;;;;;;;;;;;;8.05;70.63;103076.34;7366646;19;19925;-65
2022/01/14 10:19:44;;;;;;;;;;;;;;;8.10;70.21;103070.38;7363798;19;20299;-64
2022/01/14 10:22:39;;;;;;;;;;;;;;;8.13;70.24;103065.28;7360330;19;19911;-65
2022/01/14 10:25:05;;;;;;;;;;;;;;;8.16;70.49;103073.13;7260171;19;2004388;-63
2022/01/14 10:27:37;;;;;;;;;;;;;;;8.18;70.02;103064.53;7359786;19;19929;-65
2022/01/14 10:30:25;;;;;;;;;;;;;;;8.22;70.20;103075.94;7360373;19;19918;-63
2022/01/14 10:33:17;;;;;;;;;;;;;;;8.24;70.19;103069.91;7368232;19;20626;-65
2022/01/14 10:35:45;;;;;;;;;;;;;;;8.27;70.02;103069.09;7257482;19;2004356;-64
2022/01/14 10:38:12;;;;;;;;;;;;;;;8.29;69.99;103067.41;7369933;19;19926;-64
2022/01/14 10:40:42;;;;;;;;;;;;;;;8.30;70.17;103075.25;7357660;19;20554;-65
2022/01/14 10:43:08;;;;;;;;;;;;;;;8.33;70.24;103074.47;7361901;19;19925;-64
2022/01/14 10:45:34;;;;;;;;;;;;;;;8.35;69.97;103082.31;7367927;19;22290;-65
2022/01/14 10:48:01;;;;;;;;;;;;;;;8.38;69.68;103078.09;7369389;19;19922;-65
2022/01/14 10:50:31;;;;;;;;;;;;;;;8.42;69.79;103076.44;7367455;19;19994;-65
2022/01/14 10:52:56;;;;;;;;;;;;;;;8.44;70.12;103066.94;7366657;19;19919;-64
2022/01/14 10:55:26;;;;;;;;;;;;;;;8.47;69.73;103067.91;7363601;19;19982;-63
2022/01/14 10:57:52;;;;;;;;;;;;;;;8.52;70.03;103063.69;7366115;19;20278;-63
2022/01/14 11:00:19;;;;;;;;;;;;;;;8.56;70.20;103057.69;7363869;19;19985;-63
2022/01/14 11:02:52;;;;;;;;;;;;;;;8.63;69.91;103047.44;7366704;19;19919;-63
2022/01/14 11:05:19;;;;;;;;;;;;;;;8.69;69.97;103047.56;7361303;19;19914;-64
2022/01/14 11:07:45;;;;;;;;;;;;;;;8.76;69.96;103044.25;7363394;19;19939;-65
2022/01/14 11:10:20;;;;;;;;;;;;;;;8.82;69.92;103034.84;7361769;19;19950;-64
2022/01/14 11:12:45;;;;;;;;;;;;;;;8.91;70.17;103034.16;7363088;19;19930;-65
2022/01/14 11:15:11;;;;;;;;;;;;;;;8.98;69.83;103030.84;7359747;19;19918;-65
2022/01/14 11:17:37;;;;;;;;;;;;;;;9.07;70.32;103024.94;7362472;19;19923;-64
2022/01/14 11:20:04;;;;;;;;;;;;;;;9.14;69.83;103024.22;7362509;19;19926;-64
2022/01/14 11:25:13;;;;;;;;;;;;;;;9.29;69.61;103010.63;7364045;19;20342;-64
2022/01/14 11:27:39;;;;;;;;;;;;;;;9.32;69.93;103005.44;7357836;19;19918;-63
2022/01/14 11:30:11;;;;;;;;;;;;;;;9.36;69.71;103008.16;7354726;19;20632;-65
2022/01/14 11:32:55;;;;;;;;;;;;;;;9.43;69.84;103009.16;7360823;19;19933;-65
2022/01/14 11:35:22;;;;;;;;;;;;;;;9.49;69.65;103006.66;7367391;19;19943;-64
2022/01/14 11:37:47;;;;;;;;;;;;;;;9.55;69.43;102998.94;7353169;19;19937;-64
2022/01/14 11:40:15;;;;;;;;;;;;;;;9.61;69.57;102999.06;7365608;19;19919;-64
2022/01/14 11:42:47;;;;;;;;;;;;;;;9.65;69.24;103005.22;7353331;19;20771;-64
2022/01/14 11:45:31;;;;;;;;;;;;;;;9.70;69.13;103007.91;7364982;19;19937;-64
2022/01/14 11:48:00;;;;;;;;;;;;;;;9.55;69.35;102977.19;7360887;19;19915;-64
2022/01/14 11:50:32;;;;;;;;;;;;;;;9.75;68.82;103001.03;7362529;19;19933;-65
2022/01/14 11:52:59;;;;;;;;;;;;;;;9.76;69.07;102997.56;7349818;19;19933;-64
2022/01/14 11:55:27;;;;;;;;;;;;;;;9.77;68.75;102999.31;7363035;19;19926;-64
2022/01/14 11:57:53;;;;;;;;;;;;;;;9.82;68.79;102993.31;7361688;19;19930;-64
2022/01/14 12:00:25;;;;;;;;;;;;;;;9.88;69.14;102992.56;7364806;19;20467;-65
2022/01/14 12:02:51;;;;;;;;;;;;;;;10.00;69.12;102991.91;7365021;19;20002;-63
2022/01/14 12:05:18;;;;;;;;;;;;;;;10.13;69.35;102988.59;7363786;19;21788;-64
2022/01/14 12:08:14;;;;;;;;;;;;;;;10.28;69.59;102988.00;7360345;19;21152;-66
2022/01/14 12:10:41;;;;;;;;;;;;;;;10.44;69.09;102979.56;7262618;19;2004238;-65
2022/01/14 12:13:15;;;;;;;;;;;;;;;10.57;68.96;102984.09;7354967;19;19949;-65
2022/01/14 12:15:55;;;;;;;;;;;;;;;10.74;69.00;102968.63;7362583;19;19935;-64
2022/01/14 12:18:39;;;;;;;;;;;;;;;10.97;69.23;102965.44;7362394;19;19922;-64
2022/01/14 12:21:05;;;;;;;;;;;;;;;11.18;68.65;102971.78;7353520;19;20571;-61
2022/01/14 12:23:30;;;;;;;;;;;;;;;11.34;68.65;102969.31;7362982;19;19934;-65
2022/01/14 12:26:11;;;;;;;;;;;;;;;11.48;68.25;102967.72;7364440;19;19940;-65
2022/01/14 12:28:36;;;;;;;;;;;;;;;11.61;68.40;102966.13;7358206;19;20698;-64
2022/01/14 12:31:03;;;;;;;;;;;;;;;11.70;68.26;102967.06;7362149;19;19939;-65
2022/01/14 12:33:37;;;;;;;;;;;;;;;11.80;67.67;102964.53;7361045;19;19927;-65
2022/01/14 12:36:13;;;;;;;;;;;;;;;11.87;67.26;102966.38;7358022;19;19919;-64
2022/01/14 12:38:40;;;;;;;;;;;;;;;11.93;67.19;102963.81;7356748;19;19925;-65
2022/01/14 12:41:12;;;;;;;;;;;;;;;11.98;67.10;102956.88;7353617;19;19914;-65
2022/01/14 12:43:45;;;;;;;;;;;;;;;12.01;67.20;102949.00;7354724;19;19941;-64
2022/01/14 12:46:14;;;;;;;;;;;;;;;12.04;66.56;102948.19;7362134;19;19930;-65
2022/01/14 12:48:50;;;;;;;;;;;;;;;12.04;66.50;102941.19;7363066;19;19996;-65
2022/01/14 12:51:18;;;;;;;;;;;;;;;12.07;66.62;102937.75;7362464;19;19923;-65
2022/01/14 12:53:50;;;;;;;;;;;;;;;12.08;66.43;102929.88;7364918;19;19942;-65
2022/01/14 12:56:17;;;;;;;;;;;;;;;12.10;66.48;102930.75;7357627;19;19929;-65
2022/01/14 12:58:59;;;;;;;;;;;;;;;12.12;66.58;102917.69;7361130;19;20371;-65
2022/01/14 13:01:32;;;;;;;;;;;;;;;12.13;66.19;102915.06;7361336;19;19923;-65
2022/01/14 13:04:00;;;;;;;;;;;;;;;12.17;66.54;102923.84;7356378;19;19919;-65
2022/01/14 13:06:26;;;;;;;;;;;;;;;12.25;66.66;102916.00;7360254;19;21484;-65
2022/01/14 13:08:52;;;;;;;;;;;;;;;12.37;66.70;102916.09;7362396;19;19923;-65
2022/01/14 13:11:18;;;;;;;;;;;;;;;12.53;66.67;102917.91;7366095;19;20624;-65
2022/01/14 13:13:45;;;;;;;;;;;;;;;12.59;66.89;102898.72;7370129;19;19919;-65